createdAt,value
2018-04-23T00:01:42.031Z,13.69
2018-04-23T00:04:09.849Z,13.68
2018-04-23T00:06:37.544Z,13.70
2018-04-23T00:09:05.386Z,13.68
2018-04-23T00:11:32.960Z,13.59
2018-04-23T00:14:00.602Z,13.58
2018-04-23T00:16:28.165Z,13.66
2018-04-23T00:18:55.705Z,13.70
2018-04-23T00:21:23.476Z,13.66
2018-04-23T00:23:51.296Z,13.65
2018-04-23T00:26:18.978Z,13.59
2018-04-23T00:28:46.532Z,13.50
2018-04-23T00:31:14.092Z,13.42
2018-04-23T00:33:41.828Z,13.38
2018-04-23T00:36:09.432Z,13.31
2018-04-23T00:38:36.989Z,13.29
2018-04-23T00:41:04.540Z,13.19
2018-04-23T00:43:32.109Z,13.17
2018-04-23T00:45:59.664Z,13.20
2018-04-23T00:48:27.365Z,13.18
2018-04-23T00:50:54.934Z,13.11
2018-04-23T00:53:34.376Z,13.09
2018-04-23T00:56:01.913Z,13.11
2018-04-23T00:58:29.496Z,13.15
2018-04-23T01:00:57.075Z,13.11
2018-04-23T01:03:24.640Z,13.05
2018-04-23T01:05:52.274Z,12.98
2018-04-23T01:08:19.961Z,12.97
2018-04-23T01:10:47.518Z,12.95
2018-04-23T01:13:15.267Z,12.87
2018-04-23T01:15:42.887Z,12.76
2018-04-23T01:18:10.528Z,12.71
2018-04-23T01:20:38.248Z,12.62
2018-04-23T01:23:05.808Z,12.55
2018-04-23T01:25:33.384Z,12.52
2018-04-23T01:28:00.936Z,12.40
2018-04-23T01:30:28.496Z,12.38
2018-04-23T01:32:56.062Z,12.38
2018-04-23T01:35:23.742Z,12.30
2018-04-23T01:37:51.352Z,12.31
2018-04-23T01:40:19.093Z,12.25
2018-04-23T01:42:46.910Z,12.20
2018-04-23T01:45:14.483Z,12.20
2018-04-23T01:47:42.061Z,12.10
2018-04-23T01:50:09.841Z,12.10
2018-04-23T01:52:37.392Z,12.12
2018-04-23T01:55:04.964Z,12.14
2018-04-23T01:57:32.518Z,12.17
2018-04-23T02:00:00.486Z,12.18
2018-04-23T02:02:28.082Z,12.24
2018-04-23T02:04:55.864Z,12.30
2018-04-23T02:07:23.442Z,12.35
2018-04-23T02:09:51.066Z,12.42
2018-04-23T02:12:18.640Z,12.43
2018-04-23T02:14:46.447Z,12.49
2018-04-23T02:17:13.997Z,12.36
2018-04-23T02:19:41.561Z,12.33
2018-04-23T02:22:09.179Z,12.33
2018-04-23T02:24:36.899Z,12.30
2018-04-23T02:27:04.494Z,12.21
2018-04-23T02:29:32.048Z,12.20
2018-04-23T02:31:59.598Z,12.17
2018-04-23T02:34:27.171Z,12.10
2018-04-23T02:36:54.731Z,12.02
2018-04-23T02:39:22.292Z,11.99
2018-04-23T02:41:49.857Z,11.97
2018-04-23T02:44:17.410Z,12.08
2018-04-23T02:46:44.969Z,12.08
2018-04-23T02:49:12.530Z,12.04
2018-04-23T02:51:40.313Z,11.96
2018-04-23T02:54:07.864Z,11.90
2018-04-23T02:56:35.541Z,11.89
2018-04-23T02:59:03.111Z,11.91
2018-04-23T03:01:30.666Z,11.87
2018-04-23T03:03:58.451Z,11.90
2018-04-23T03:06:26.013Z,11.88
2018-04-23T03:08:53.580Z,11.88
2018-04-23T03:11:21.145Z,11.93
2018-04-23T03:13:48.875Z,11.93
2018-04-23T03:16:16.450Z,11.87
2018-04-23T03:18:44.216Z,11.79
2018-04-23T03:21:11.790Z,11.78
2018-04-23T03:23:39.354Z,11.69
2018-04-23T03:26:07.165Z,11.70
2018-04-23T03:28:34.984Z,11.65
2018-04-23T03:31:02.592Z,11.63
2018-04-23T03:33:30.163Z,11.67
2018-04-23T03:35:57.705Z,11.64
2018-04-23T03:38:25.256Z,11.62
2018-04-23T03:40:52.828Z,11.65
2018-04-23T03:43:20.501Z,11.72
2018-04-23T03:45:48.425Z,11.76
2018-04-23T03:48:15.984Z,11.78
2018-04-23T03:50:43.745Z,11.74
2018-04-23T03:53:11.565Z,11.78
2018-04-23T03:55:39.197Z,11.89
2018-04-23T03:58:07.002Z,11.95
2018-04-23T04:00:34.564Z,12.04
2018-04-23T04:03:02.127Z,12.07
2018-04-23T04:05:29.955Z,12.09
2018-04-23T04:07:57.512Z,12.14
2018-04-23T04:10:25.291Z,12.15
2018-04-23T04:13:04.952Z,12.22
2018-04-23T04:15:44.414Z,12.26
2018-04-23T04:21:13.753Z,12.41
2018-04-23T04:23:41.488Z,12.48
2018-04-23T04:26:09.046Z,12.48
2018-04-23T04:28:36.823Z,12.54
2018-04-23T04:31:04.643Z,12.53
2018-04-23T04:33:32.256Z,12.53
2018-04-23T04:35:59.809Z,12.58
2018-04-23T04:38:27.594Z,12.67
2018-04-23T04:40:55.208Z,12.66
2018-04-23T04:43:22.764Z,12.57
2018-04-23T04:45:50.445Z,12.52
2018-04-23T04:48:18.000Z,12.56
2018-04-23T04:50:45.786Z,12.62
2018-04-23T04:53:13.390Z,12.75
2018-04-23T04:55:41.121Z,12.90
2018-04-23T04:58:08.693Z,13.02
2018-04-23T05:00:36.257Z,13.09
2018-04-23T05:03:04.075Z,13.28
2018-04-23T05:05:31.697Z,13.51
2018-04-23T05:07:59.266Z,13.75
2018-04-23T05:10:26.844Z,14.39
2018-04-23T05:12:54.421Z,15.89
2018-04-23T05:15:22.040Z,17.50
2018-04-23T05:17:49.636Z,19.15
2018-04-23T05:20:17.193Z,20.39
2018-04-23T05:22:44.769Z,21.38
2018-04-23T05:25:12.536Z,22.10
2018-04-23T05:27:40.128Z,22.81
2018-04-23T05:30:07.707Z,23.74
2018-04-23T05:32:35.332Z,24.61
2018-04-23T05:35:02.897Z,25.46
2018-04-23T05:37:30.466Z,25.85
2018-04-23T05:39:58.044Z,26.51
2018-04-23T05:42:25.605Z,26.99
2018-04-23T05:44:53.172Z,27.71
2018-04-23T05:47:20.738Z,28.58
2018-04-23T05:49:48.359Z,28.42
2018-04-23T05:52:15.925Z,28.23
2018-04-23T05:54:43.504Z,27.83
2018-04-23T05:57:11.232Z,27.94
2018-04-23T05:59:38.949Z,28.48
2018-04-23T06:02:06.529Z,28.88
2018-04-23T06:04:34.313Z,29.74
2018-04-23T06:07:01.963Z,30.55
2018-04-23T06:09:29.657Z,30.55
2018-04-23T06:11:57.217Z,30.36
2018-04-23T06:14:24.841Z,30.54
2018-04-23T06:16:52.378Z,31.19
2018-04-23T06:19:20.028Z,31.66
2018-04-23T06:21:47.604Z,31.77
2018-04-23T06:24:15.465Z,31.72
2018-04-23T06:26:43.017Z,31.77
2018-04-23T06:29:10.580Z,31.85
2018-04-23T06:31:38.185Z,32.28
2018-04-23T06:34:05.745Z,32.07
2018-04-23T06:36:33.345Z,32.33
2018-04-23T06:39:00.883Z,32.29
2018-04-23T06:41:28.496Z,32.01
2018-04-23T06:43:56.085Z,32.15
2018-04-23T06:46:23.884Z,32.36
2018-04-23T06:48:51.644Z,32.67
2018-04-23T06:51:19.213Z,32.76
2018-04-23T06:53:46.780Z,33.05
2018-04-23T06:56:14.382Z,32.65
2018-04-23T06:58:42.007Z,32.52
2018-04-23T07:01:09.749Z,32.21
2018-04-23T07:03:37.454Z,32.10
2018-04-23T07:06:05.036Z,31.81
2018-04-23T07:08:32.759Z,32.25
2018-04-23T07:11:00.320Z,32.45
2018-04-23T07:13:27.876Z,33.17
2018-04-23T07:15:55.766Z,33.97
2018-04-23T07:18:23.681Z,34.00
2018-04-23T07:20:51.240Z,34.71
2018-04-23T07:23:18.999Z,35.44
2018-04-23T07:25:46.560Z,35.30
2018-04-23T07:28:14.124Z,35.38
2018-04-23T07:30:41.693Z,35.70
2018-04-23T07:33:09.300Z,35.32
2018-04-23T07:35:36.867Z,35.19
2018-04-23T07:38:04.584Z,35.13
2018-04-23T07:40:32.301Z,34.85
2018-04-23T07:42:59.863Z,35.13
2018-04-23T07:45:27.432Z,35.33
2018-04-23T07:47:55.238Z,35.31
2018-04-23T07:50:22.877Z,34.55
2018-04-23T07:52:50.434Z,34.12
2018-04-23T07:55:18.022Z,34.75
2018-04-23T07:57:45.569Z,35.50
2018-04-23T08:00:13.114Z,35.31
2018-04-23T08:02:40.887Z,35.18
2018-04-23T08:05:08.449Z,35.09
2018-04-23T08:07:36.072Z,34.95
2018-04-23T08:10:03.691Z,35.36
2018-04-23T08:12:31.236Z,34.97
2018-04-23T08:14:58.796Z,34.92
2018-04-23T08:17:26.359Z,34.53
2018-04-23T08:19:53.940Z,33.57
2018-04-23T08:22:21.739Z,33.16
2018-04-23T08:24:49.548Z,33.66
2018-04-23T08:27:17.116Z,34.35
2018-04-23T08:29:44.676Z,35.08
2018-04-23T08:32:12.272Z,34.87
2018-04-23T08:34:39.980Z,34.90
2018-04-23T08:37:07.694Z,35.03
2018-04-23T08:39:35.322Z,35.23
2018-04-23T08:42:03.177Z,35.04
2018-04-23T08:44:30.894Z,33.93
2018-04-23T08:46:58.449Z,33.89
2018-04-23T08:49:26.121Z,34.21
2018-04-23T08:51:53.676Z,34.58
2018-04-23T08:54:21.244Z,34.53
2018-04-23T08:56:48.985Z,35.11
2018-04-23T08:59:16.603Z,35.08
2018-04-23T09:01:44.157Z,35.10
2018-04-23T09:04:11.716Z,35.27
2018-04-23T09:06:39.264Z,35.95
2018-04-23T09:09:06.819Z,36.45
2018-04-23T09:11:34.376Z,36.15
2018-04-23T09:14:01.928Z,35.52
2018-04-23T09:16:29.728Z,35.19
2018-04-23T09:18:57.414Z,35.24
2018-04-23T09:21:24.978Z,35.85
2018-04-23T09:23:52.781Z,35.85
2018-04-23T09:26:20.339Z,36.01
2018-04-23T09:28:48.118Z,35.88
2018-04-23T09:31:15.835Z,35.80
2018-04-23T09:33:43.653Z,36.24
2018-04-23T09:36:11.219Z,36.67
2018-04-23T09:38:38.788Z,36.72
2018-04-23T09:41:06.608Z,36.65
2018-04-23T09:43:34.165Z,37.07
2018-04-23T09:46:01.740Z,37.17
2018-04-23T09:48:29.344Z,37.13
2018-04-23T09:50:57.181Z,36.08
2018-04-23T09:53:24.736Z,35.29
2018-04-23T09:55:52.518Z,35.27
2018-04-23T09:58:20.337Z,35.22
2018-04-23T10:00:48.054Z,35.41
2018-04-23T10:03:15.676Z,35.75
2018-04-23T10:05:43.241Z,35.81
2018-04-23T10:08:11.011Z,35.70
2018-04-23T10:10:38.827Z,35.47
2018-04-23T10:13:06.546Z,36.03
2018-04-23T10:15:34.368Z,36.00
2018-04-23T10:18:01.925Z,35.62
2018-04-23T10:20:29.489Z,34.76
2018-04-23T10:22:57.075Z,34.31
2018-04-23T10:25:24.625Z,34.27
2018-04-23T10:27:52.191Z,34.48
2018-04-23T10:30:19.971Z,34.39
2018-04-23T10:32:47.580Z,34.42
2018-04-23T10:35:15.308Z,34.34
2018-04-23T10:37:42.875Z,34.20
2018-04-23T10:40:10.646Z,34.09
2018-04-23T10:42:38.469Z,34.44
2018-04-23T10:45:06.070Z,35.15
2018-04-23T10:47:33.891Z,34.78
2018-04-23T10:50:01.521Z,34.75
2018-04-23T10:52:29.219Z,34.90
2018-04-23T10:54:56.954Z,34.75
2018-04-23T10:57:24.802Z,34.86
2018-04-23T10:59:52.701Z,34.87
2018-04-23T11:02:20.312Z,34.92
2018-04-23T11:04:48.021Z,34.68
2018-04-23T11:07:15.738Z,34.94
2018-04-23T11:09:43.412Z,34.96
2018-04-23T11:12:11.074Z,34.79
2018-04-23T11:14:38.801Z,34.72
2018-04-23T11:17:06.395Z,34.52
2018-04-23T11:19:34.027Z,34.06
2018-04-23T11:22:01.756Z,33.69
2018-04-23T11:24:29.365Z,33.55
2018-04-23T11:26:56.948Z,33.55
2018-04-23T11:29:24.674Z,33.24
2018-04-23T11:31:52.240Z,33.40
2018-04-23T11:34:19.935Z,33.57
2018-04-23T11:36:47.531Z,33.50
2018-04-23T11:39:15.096Z,33.29
2018-04-23T11:41:42.920Z,32.95
2018-04-23T11:44:10.720Z,32.85
2018-04-23T11:46:38.292Z,33.20
2018-04-23T11:49:06.033Z,33.48
2018-04-23T11:51:33.624Z,33.55
2018-04-23T11:54:01.272Z,33.32
2018-04-23T11:56:29.010Z,33.08
2018-04-23T11:58:56.711Z,32.60
2018-04-23T12:01:24.408Z,32.66
2018-04-23T12:03:51.949Z,32.79
2018-04-23T12:06:19.781Z,32.90
2018-04-23T12:08:47.385Z,32.92
2018-04-23T12:11:15.203Z,33.03
2018-04-23T12:13:42.829Z,32.54
2018-04-23T12:16:10.707Z,32.58
2018-04-23T12:18:38.476Z,32.67
2018-04-23T12:21:06.081Z,32.69
2018-04-23T12:23:33.708Z,32.55
2018-04-23T12:26:01.270Z,32.57
2018-04-23T12:28:28.892Z,32.42
2018-04-23T12:30:56.664Z,31.94
2018-04-23T12:33:24.220Z,31.49
2018-04-23T12:35:51.781Z,30.94
2018-04-23T12:38:19.375Z,31.07
2018-04-23T12:40:47.005Z,31.12
2018-04-23T12:43:14.753Z,30.96
2018-04-23T12:45:42.308Z,31.08
2018-04-23T12:48:09.876Z,30.92
2018-04-23T12:50:37.592Z,31.12
2018-04-23T12:53:05.282Z,31.19
2018-04-23T12:55:33.157Z,31.07
2018-04-23T12:58:00.800Z,30.99
2018-04-23T13:00:28.583Z,31.17
2018-04-23T13:02:56.153Z,31.07
2018-04-23T13:05:23.728Z,30.65
2018-04-23T13:07:51.280Z,30.51
2018-04-23T13:10:19.029Z,30.46
2018-04-23T13:12:46.574Z,30.70
2018-04-23T13:15:14.178Z,30.50
2018-04-23T13:17:41.737Z,30.49
2018-04-23T13:20:09.527Z,30.54
2018-04-23T13:22:37.343Z,30.71
2018-04-23T13:25:05.089Z,30.75
2018-04-23T13:27:32.880Z,30.75
2018-04-23T13:30:00.473Z,30.85
2018-04-23T13:32:28.281Z,30.58
2018-04-23T13:34:56.098Z,30.53
2018-04-23T13:37:23.690Z,30.71
2018-04-23T13:39:51.257Z,30.97
2018-04-23T13:42:18.821Z,31.02
2018-04-23T13:44:46.405Z,31.05
2018-04-23T13:47:13.960Z,31.06
2018-04-23T13:49:41.767Z,31.13
2018-04-23T13:52:09.328Z,31.23
2018-04-23T13:54:36.880Z,31.07
2018-04-23T13:57:04.705Z,30.99
2018-04-23T13:59:32.279Z,30.93
2018-04-23T14:01:59.844Z,31.04
2018-04-23T14:04:27.404Z,31.02
2018-04-23T14:06:55.075Z,30.65
2018-04-23T14:09:22.895Z,30.76
2018-04-23T14:11:50.717Z,30.72
2018-04-23T14:14:18.283Z,30.70
2018-04-23T14:16:45.844Z,30.69
2018-04-23T14:19:13.393Z,30.43
2018-04-23T14:21:40.963Z,30.53
2018-04-23T14:24:08.581Z,30.44
2018-04-23T14:26:36.141Z,30.58
2018-04-23T14:29:03.678Z,30.64
2018-04-23T14:31:31.252Z,30.66
2018-04-23T14:33:58.974Z,30.78
2018-04-23T14:36:26.608Z,30.76
2018-04-23T14:38:54.164Z,30.64
2018-04-23T14:41:21.915Z,30.51
2018-04-23T14:43:49.627Z,30.53
2018-04-23T14:46:17.185Z,30.42
2018-04-23T14:48:44.989Z,30.58
2018-04-23T14:51:12.543Z,30.69
2018-04-23T14:53:40.100Z,30.69
2018-04-23T14:56:07.817Z,30.68
2018-04-23T14:58:35.424Z,30.59
2018-04-23T15:01:03.182Z,30.35
2018-04-23T15:03:30.964Z,30.06
2018-04-23T15:05:58.710Z,30.04
2018-04-23T15:08:26.427Z,30.00
2018-04-23T15:10:53.998Z,29.88
2018-04-23T15:13:21.533Z,29.90
2018-04-23T15:15:49.261Z,29.90
2018-04-23T15:18:16.819Z,29.81
2018-04-23T15:20:44.523Z,29.69
2018-04-23T15:23:12.159Z,29.52
2018-04-23T15:25:39.952Z,29.42
2018-04-23T15:28:07.520Z,29.32
2018-04-23T15:30:35.174Z,29.31
2018-04-23T15:33:02.728Z,29.23
2018-04-23T15:35:30.315Z,29.22
2018-04-23T15:37:58.041Z,29.22
2018-04-23T15:40:25.860Z,29.20
2018-04-23T15:42:53.420Z,29.17
2018-04-23T15:45:20.983Z,29.11
2018-04-23T15:47:48.544Z,29.11
2018-04-23T15:50:16.097Z,29.03
2018-04-23T15:52:44.003Z,28.95
2018-04-23T15:55:11.558Z,28.79
2018-04-23T15:57:39.264Z,28.57
2018-04-23T16:00:06.890Z,28.44
2018-04-23T16:02:34.443Z,28.35
2018-04-23T16:05:02.242Z,28.23
2018-04-23T16:07:29.851Z,28.06
2018-04-23T16:09:57.492Z,27.83
2018-04-23T16:12:25.045Z,27.56
2018-04-23T16:14:52.609Z,27.23
2018-04-23T16:17:20.176Z,26.96
2018-04-23T16:19:47.728Z,26.75
2018-04-23T16:22:15.567Z,26.63
2018-04-23T16:24:43.286Z,26.38
2018-04-23T16:27:10.836Z,26.26
2018-04-23T16:29:38.414Z,26.06
2018-04-23T16:32:05.972Z,25.90
2018-04-23T16:34:33.541Z,25.76
2018-04-23T16:37:01.168Z,25.61
2018-04-23T16:39:28.993Z,25.40
2018-04-23T16:41:56.714Z,25.20
2018-04-23T16:44:27.167Z,25.07
2018-04-23T16:46:51.865Z,24.90
2018-04-23T16:49:19.435Z,24.75
2018-04-23T16:51:47.009Z,24.68
2018-04-23T16:54:14.600Z,24.61
2018-04-23T16:56:42.291Z,24.47
2018-04-23T16:59:09.844Z,24.35
2018-04-23T17:01:37.659Z,24.23
2018-04-23T17:04:05.233Z,24.15
2018-04-23T17:06:32.785Z,24.01
2018-04-23T17:09:00.368Z,23.93
2018-04-23T17:11:28.228Z,23.90
2018-04-23T17:13:55.844Z,23.79
2018-04-23T17:16:23.451Z,23.76
2018-04-23T17:18:51.073Z,23.72
2018-04-23T17:21:18.645Z,23.61
2018-04-23T17:23:46.200Z,23.53
2018-04-23T17:26:13.768Z,23.42
2018-04-23T17:28:41.332Z,23.33
2018-04-23T17:31:09.172Z,23.29
2018-04-23T17:33:36.782Z,23.19
2018-04-23T17:36:04.385Z,23.12
2018-04-23T17:38:31.957Z,23.00
2018-04-23T17:40:59.568Z,22.90
2018-04-23T17:43:27.373Z,22.82
2018-04-23T17:45:55.070Z,22.76
2018-04-23T17:48:22.688Z,22.69
2018-04-23T17:50:50.417Z,22.58
2018-04-23T17:53:18.136Z,22.46
2018-04-23T17:55:45.751Z,22.38
2018-04-23T17:58:13.473Z,22.34
2018-04-23T18:00:41.291Z,22.26
2018-04-23T18:03:08.888Z,22.16
2018-04-23T18:05:36.545Z,22.08
2018-04-23T18:08:04.166Z,22.03
2018-04-23T18:10:31.754Z,21.96
2018-04-23T18:12:59.332Z,21.88
2018-04-23T18:15:26.932Z,21.79
2018-04-23T18:17:54.568Z,21.77
2018-04-23T18:20:22.166Z,21.71
2018-04-23T18:22:49.764Z,21.63
2018-04-23T18:25:17.348Z,21.61
2018-04-23T18:27:44.904Z,21.57
2018-04-23T18:30:12.488Z,21.54
2018-04-23T18:32:40.061Z,21.48
2018-04-23T18:35:07.750Z,21.44
2018-04-23T18:37:35.293Z,21.44
2018-04-23T18:40:02.863Z,21.38
2018-04-23T18:42:30.424Z,21.30
2018-04-23T18:44:57.988Z,21.22
2018-04-23T18:47:25.622Z,21.09
2018-04-23T18:49:53.256Z,20.94
2018-04-23T18:52:20.882Z,20.78
2018-04-23T18:54:48.470Z,20.70
2018-04-23T18:57:16.045Z,20.58
2018-04-23T18:59:43.821Z,20.55
2018-04-23T19:02:11.378Z,20.48
2018-04-23T19:04:38.946Z,20.45
2018-04-23T19:07:06.648Z,20.42
2018-04-23T19:09:34.233Z,20.35
2018-04-23T19:12:02.012Z,20.33
2018-04-23T19:14:29.830Z,20.28
2018-04-23T19:16:57.649Z,20.13
2018-04-23T19:19:25.468Z,20.05
2018-04-23T19:21:53.059Z,19.93
2018-04-23T19:24:20.641Z,19.86
2018-04-23T19:26:48.214Z,19.71
2018-04-23T19:29:15.777Z,19.68
2018-04-23T19:31:43.515Z,19.61
2018-04-23T19:34:11.375Z,19.55
2018-04-23T19:36:39.093Z,19.55
2018-04-23T19:39:06.708Z,19.53
2018-04-23T19:41:34.276Z,19.42
2018-04-23T19:44:01.938Z,19.37
2018-04-23T19:46:29.576Z,19.37
2018-04-23T19:48:57.384Z,19.34
2018-04-23T19:51:24.968Z,19.28
2018-04-23T19:53:52.720Z,19.18
2018-04-23T19:56:20.294Z,19.07
2018-04-23T19:58:48.156Z,19.03
2018-04-23T20:01:15.725Z,18.98
2018-04-23T20:03:43.493Z,18.96
2018-04-23T20:06:11.101Z,18.87
2018-04-23T20:08:38.726Z,18.79
2018-04-23T20:11:06.546Z,18.66
2018-04-23T20:13:34.128Z,18.58
2018-04-23T20:16:01.783Z,18.56
2018-04-23T20:18:29.359Z,18.45
2018-04-23T20:20:57.000Z,18.44
2018-04-23T20:23:24.717Z,18.32
2018-04-23T20:25:52.388Z,18.30
2018-04-23T20:28:20.063Z,18.25
2018-04-23T20:30:47.791Z,18.20
2018-04-23T20:33:15.424Z,18.12
2018-04-23T20:35:43.229Z,18.09
2018-04-23T20:38:10.788Z,18.06
2018-04-23T20:40:38.564Z,17.95
2018-04-23T20:43:06.129Z,17.91
2018-04-23T20:45:33.817Z,17.93
2018-04-23T20:48:01.376Z,17.93
2018-04-23T20:50:29.239Z,17.86
2018-04-23T20:52:56.812Z,17.82
2018-04-23T20:55:24.388Z,17.75
2018-04-23T20:57:52.191Z,17.71
2018-04-23T21:00:19.910Z,17.66
2018-04-23T21:02:47.509Z,17.59
2018-04-23T21:05:15.202Z,17.61
2018-04-23T21:07:42.821Z,17.59
2018-04-23T21:10:10.582Z,17.55
2018-04-23T21:12:38.294Z,17.53
2018-04-23T21:15:05.853Z,17.50
2018-04-23T21:17:33.637Z,17.46
2018-04-23T21:20:01.456Z,17.45
2018-04-23T21:22:29.233Z,17.38
2018-04-23T21:24:57.305Z,17.40
2018-04-23T21:27:25.979Z,17.42
2018-04-23T21:29:53.688Z,17.35
2018-04-23T21:32:21.261Z,17.34
2018-04-23T21:34:48.826Z,17.36
2018-04-23T21:37:16.396Z,17.39
2018-04-23T21:39:43.959Z,17.39
2018-04-23T21:42:11.580Z,17.28
2018-04-23T21:44:39.341Z,17.15
2018-04-23T21:47:07.053Z,17.21
2018-04-23T21:49:34.613Z,17.19
2018-04-23T21:52:02.189Z,17.19
2018-04-23T21:54:30.015Z,17.07
2018-04-23T21:56:57.572Z,17.03
2018-04-23T21:59:25.351Z,16.92
2018-04-23T22:01:52.988Z,16.81
2018-04-23T22:04:20.561Z,16.76
2018-04-23T22:06:48.273Z,16.76
2018-04-23T22:09:15.812Z,16.72
2018-04-23T22:11:43.385Z,16.71
2018-04-23T22:14:10.962Z,16.66
2018-04-23T22:16:38.644Z,16.58
2018-04-23T22:19:06.207Z,16.58
2018-04-23T22:21:34.015Z,16.58
2018-04-23T22:24:01.580Z,16.59
2018-04-23T22:26:29.349Z,16.56
2018-04-23T22:28:56.958Z,16.54
2018-04-23T22:31:24.564Z,16.52
2018-04-23T22:33:52.404Z,16.45
2018-04-23T22:36:19.942Z,16.39
2018-04-23T22:38:47.740Z,16.41
2018-04-23T22:41:15.308Z,16.36
2018-04-23T22:43:42.925Z,16.28
2018-04-23T22:46:10.841Z,16.19
2018-04-23T22:48:38.404Z,16.15
2018-04-23T22:51:06.036Z,16.16
2018-04-23T22:53:33.596Z,16.08
2018-04-23T22:56:01.148Z,15.99
2018-04-23T22:58:28.700Z,15.91
2018-04-23T23:00:56.257Z,15.82
2018-04-23T23:03:23.834Z,15.74
2018-04-23T23:05:51.637Z,15.73
2018-04-23T23:08:19.253Z,15.67
2018-04-23T23:10:46.821Z,15.62
2018-04-23T23:13:14.573Z,15.57
2018-04-23T23:15:42.142Z,15.44
2018-04-23T23:18:09.716Z,15.45
2018-04-23T23:20:37.544Z,15.40
2018-04-23T23:23:05.365Z,15.34
2018-04-23T23:25:32.924Z,15.26
2018-04-23T23:28:00.489Z,15.20
2018-04-23T23:30:28.045Z,15.15
2018-04-23T23:32:55.836Z,15.14
2018-04-23T23:35:23.943Z,15.13
2018-04-23T23:37:51.552Z,15.11
2018-04-23T23:40:19.127Z,15.10
2018-04-23T23:42:46.679Z,15.11
2018-04-23T23:45:14.485Z,15.10
2018-04-23T23:47:42.045Z,15.09
2018-04-23T23:50:09.657Z,14.99
2018-04-23T23:52:37.323Z,14.97
2018-04-23T23:55:05.231Z,14.92
2018-04-23T23:57:32.788Z,14.87
